Evanston Uinta County Burns Field
KEVW : now visible

Airfield :











YOU CAN JOIN US ON...

 
LOGIN :

Register | Disclaimer

   EN    FR    IT 

 









Legend :    VFR   Marginal VFR   IFR   Intensive IFR   Very Intensive IFR
Visi :
Ceiling :
>= 8 km
>= 3000ft
5 to 8 km
1000 to 3000 ft
1500m to 5 km
500 to 1000 ft
800 to 1500m
200 to 500 ft
< 800m
< 200 ft
Symbols :   Thunderstorms  Fog  Heavy snow  Heavy precipitations  Wind > 20 kt






- Airport Elevation : 7143 ft


KEVW - Evanston Uinta County Burns Field

CURRENT METAR :
  • 031232Z AUTO 00000KT 1SM BR CLR 11/10 A3041 RMK AO2 T01110100

EXPIRED METARs :
  • 031153Z AUTO 25005KT 6SM BR CLR 11/10 A3041 RMK AO2 SLP220 70008 T01060100 10139 20106 53004
  • 031053Z AUTO 25007KT 10SM FEW002 11/10 A3040 RMK AO2 SLP212 T01110100
  • 031039Z AUTO 25008KT 3SM BR SCT002 11/10 A3039 RMK AO2 T01110100
  • 031024Z AUTO 24008KT 1/2SM FG VV001 11/11 A3039 RMK AO2 T01110106
  • 031001Z AUTO 24007KT 1/4SM FG VV001 12/11 A3039 RMK AO2 T01170111
  • 030953Z AUTO 24008KT 1/2SM FG VV001 12/11 A3039 RMK AO2 VIS 1/4V5 SLP207 T01170111

TAF KEVW
Valid from the 03 at 12:00 until the 04 at 12:00 UTC


031207Z 0312/0412 25007KT 6SM BR VCFG SCT002
FM031500 26008KT P6SM SKC
FM031800 31009KT P6SM SKC
FM032100 32012G20KT P6SM SKC
FM040300 33007KT P6SM SKC
KZLC FIR / North America



MET'MAP, your aeronautical weather chart ! - Copyright ORBIFLY December 2007 - Disclaimer

ORBIFLY MET'MAP TEAM :

Programming & Development : Alexandra Zaïnal
Concept & original design : Baudouin d'Aumeries
Assistance for programming : Marc-Olivier Méhu
Technical & hardware support : Manuel Goepfert

Contact : metmap@orbifly.com




SOURCES & CREDITS :

   NOAA       Earth
Advisory